sensor_id;sensor_type;location;lat;lon;timestamp;P1;durP1;ratioP1;P2;durP2;ratioP2
5060;SDS011;2549;52.128;21.068;2023-02-22T00:01:33;6.80;;;2.10;;
5060;SDS011;2549;52.128;21.068;2023-02-22T00:04:01;10.85;;;2.97;;
5060;SDS011;2549;52.128;21.068;2023-02-22T00:06:30;10.27;;;2.60;;
5060;SDS011;2549;52.128;21.068;2023-02-22T00:08:58;12.15;;;2.80;;
5060;SDS011;2549;52.128;21.068;2023-02-22T00:11:25;8.52;;;2.00;;
5060;SDS011;2549;52.128;21.068;2023-02-22T00:13:52;9.52;;;1.90;;
5060;SDS011;2549;52.128;21.068;2023-02-22T00:16:23;12.65;;;2.22;;
5060;SDS011;2549;52.128;21.068;2023-02-22T00:18:51;8.25;;;1.83;;
5060;SDS011;2549;52.128;21.068;2023-02-22T00:21:18;9.93;;;2.08;;
5060;SDS011;2549;52.128;21.068;2023-02-22T00:23:46;14.00;;;2.55;;
5060;SDS011;2549;52.128;21.068;2023-02-22T00:26:15;4.93;;;2.28;;
5060;SDS011;2549;52.128;21.068;2023-02-22T00:28:49;9.18;;;2.35;;
5060;SDS011;2549;52.128;21.068;2023-02-22T00:31:18;5.45;;;2.70;;
5060;SDS011;2549;52.128;21.068;2023-02-22T00:33:46;7.55;;;2.70;;
5060;SDS011;2549;52.128;21.068;2023-02-22T00:36:13;9.15;;;1.92;;
5060;SDS011;2549;52.128;21.068;2023-02-22T00:38:40;8.15;;;2.60;;
5060;SDS011;2549;52.128;21.068;2023-02-22T00:41:07;11.32;;;4.05;;
5060;SDS011;2549;52.128;21.068;2023-02-22T00:43:34;9.43;;;2.58;;
5060;SDS011;2549;52.128;21.068;2023-02-22T00:46:01;9.43;;;2.78;;
5060;SDS011;2549;52.128;21.068;2023-02-22T00:48:28;11.65;;;2.70;;
5060;SDS011;2549;52.128;21.068;2023-02-22T00:50:55;8.02;;;2.25;;
5060;SDS011;2549;52.128;21.068;2023-02-22T00:53:22;6.03;;;2.20;;
5060;SDS011;2549;52.128;21.068;2023-02-22T00:55:50;5.50;;;2.07;;
5060;SDS011;2549;52.128;21.068;2023-02-22T00:58:17;8.88;;;2.22;;
5060;SDS011;2549;52.128;21.068;2023-02-22T01:00:44;8.85;;;2.75;;
5060;SDS011;2549;52.128;21.068;2023-02-22T01:03:12;12.15;;;2.30;;
5060;SDS011;2549;52.128;21.068;2023-02-22T01:05:43;4.10;;;2.25;;
5060;SDS011;2549;52.128;21.068;2023-02-22T01:08:10;3.40;;;1.90;;
5060;SDS011;2549;52.128;21.068;2023-02-22T01:10:38;13.13;;;2.90;;
5060;SDS011;2549;52.128;21.068;2023-02-22T01:13:06;5.00;;;2.40;;
5060;SDS011;2549;52.128;21.068;2023-02-22T01:15:35;5.38;;;2.42;;
5060;SDS011;2549;52.128;21.068;2023-02-22T01:18:04;10.65;;;2.90;;
5060;SDS011;2549;52.128;21.068;2023-02-22T01:20:32;8.05;;;2.20;;
5060;SDS011;2549;52.128;21.068;2023-02-22T01:22:59;3.90;;;2.05;;
5060;SDS011;2549;52.128;21.068;2023-02-22T01:25:29;9.10;;;2.70;;
5060;SDS011;2549;52.128;21.068;2023-02-22T01:27:57;8.65;;;2.50;;
5060;SDS011;2549;52.128;21.068;2023-02-22T01:30:26;7.78;;;1.95;;
5060;SDS011;2549;52.128;21.068;2023-02-22T01:32:55;6.53;;;3.22;;
5060;SDS011;2549;52.128;21.068;2023-02-22T01:35:24;2.50;;;2.30;;
5060;SDS011;2549;52.128;21.068;2023-02-22T01:37:54;3.33;;;2.38;;
5060;SDS011;2549;52.128;21.068;2023-02-22T01:40:26;7.22;;;2.00;;
5060;SDS011;2549;52.128;21.068;2023-02-22T01:42:56;9.18;;;2.50;;
5060;SDS011;2549;52.128;21.068;2023-02-22T01:47:56;9.38;;;3.03;;
5060;SDS011;2549;52.128;21.068;2023-02-22T01:50:44;13.48;;;3.22;;
5060;SDS011;2549;52.128;21.068;2023-02-22T01:53:20;7.57;;;2.75;;
5060;SDS011;2549;52.128;21.068;2023-02-22T01:55:50;10.85;;;3.42;;
5060;SDS011;2549;52.128;21.068;2023-02-22T01:58:20;8.93;;;2.75;;
5060;SDS011;2549;52.128;21.068;2023-02-22T02:00:51;7.32;;;2.78;;
5060;SDS011;2549;52.128;21.068;2023-02-22T02:03:19;4.30;;;2.90;;
5060;SDS011;2549;52.128;21.068;2023-02-22T02:05:49;14.43;;;3.80;;
5060;SDS011;2549;52.128;21.068;2023-02-22T02:08:23;8.98;;;3.90;;
5060;SDS011;2549;52.128;21.068;2023-02-22T02:11:07;12.77;;;3.15;;
5060;SDS011;2549;52.128;21.068;2023-02-22T02:13:35;9.63;;;2.70;;
5060;SDS011;2549;52.128;21.068;2023-02-22T02:16:02;9.55;;;2.72;;
5060;SDS011;2549;52.128;21.068;2023-02-22T02:18:29;4.85;;;2.20;;
5060;SDS011;2549;52.128;21.068;2023-02-22T02:26:53;12.25;;;3.00;;
5060;SDS011;2549;52.128;21.068;2023-02-22T02:35:56;9.40;;;2.45;;
5060;SDS011;2549;52.128;21.068;2023-02-22T02:38:41;12.93;;;2.75;;
5060;SDS011;2549;52.128;21.068;2023-02-22T02:41:23;5.03;;;2.13;;
5060;SDS011;2549;52.128;21.068;2023-02-22T02:49:35;3.22;;;1.92;;
5060;SDS011;2549;52.128;21.068;2023-02-22T02:52:09;3.65;;;2.15;;
5060;SDS011;2549;52.128;21.068;2023-02-22T02:54:38;6.18;;;2.17;;
5060;SDS011;2549;52.128;21.068;2023-02-22T02:57:06;12.57;;;2.33;;
5060;SDS011;2549;52.128;21.068;2023-02-22T02:59:36;11.20;;;1.98;;
5060;SDS011;2549;52.128;21.068;2023-02-22T03:07:48;5.97;;;2.15;;
5060;SDS011;2549;52.128;21.068;2023-02-22T03:15:52;3.17;;;2.05;;
5060;SDS011;2549;52.128;21.068;2023-02-22T03:21:11;8.20;;;2.40;;
5060;SDS011;2549;52.128;21.068;2023-02-22T03:23:45;3.67;;;1.75;;
5060;SDS011;2549;52.128;21.068;2023-02-22T03:26:17;3.63;;;2.13;;
5060;SDS011;2549;52.128;21.068;2023-02-22T03:28:50;8.75;;;2.10;;
5060;SDS011;2549;52.128;21.068;2023-02-22T03:31:22;5.40;;;1.92;;
5060;SDS011;2549;52.128;21.068;2023-02-22T03:33:58;8.13;;;2.15;;
5060;SDS011;2549;52.128;21.068;2023-02-22T03:36:29;3.85;;;1.88;;
5060;SDS011;2549;52.128;21.068;2023-02-22T03:39:00;4.18;;;2.22;;
5060;SDS011;2549;52.128;21.068;2023-02-22T03:41:29;4.80;;;2.60;;
5060;SDS011;2549;52.128;21.068;2023-02-22T03:44:04;8.77;;;2.55;;
5060;SDS011;2549;52.128;21.068;2023-02-22T03:46:36;8.93;;;2.30;;
5060;SDS011;2549;52.128;21.068;2023-02-22T03:49:11;2.63;;;1.73;;
5060;SDS011;2549;52.128;21.068;2023-02-22T03:51:45;5.30;;;1.95;;
5060;SDS011;2549;52.128;21.068;2023-02-22T03:54:12;4.40;;;1.90;;
5060;SDS011;2549;52.128;21.068;2023-02-22T03:56:48;6.88;;;2.15;;
5060;SDS011;2549;52.128;21.068;2023-02-22T03:59:20;7.55;;;2.17;;
5060;SDS011;2549;52.128;21.068;2023-02-22T04:01:53;10.85;;;2.92;;
5060;SDS011;2549;52.128;21.068;2023-02-22T04:04:20;7.40;;;2.00;;
5060;SDS011;2549;52.128;21.068;2023-02-22T04:07:01;12.10;;;3.17;;
5060;SDS011;2549;52.128;21.068;2023-02-22T04:09:45;4.13;;;2.05;;
5060;SDS011;2549;52.128;21.068;2023-02-22T04:12:12;5.38;;;2.88;;
5060;SDS011;2549;52.128;21.068;2023-02-22T04:14:39;4.75;;;2.95;;
5060;SDS011;2549;52.128;21.068;2023-02-22T04:17:06;4.13;;;2.05;;
5060;SDS011;2549;52.128;21.068;2023-02-22T04:19:33;3.40;;;2.30;;
5060;SDS011;2549;52.128;21.068;2023-02-22T04:22:00;6.03;;;2.10;;
5060;SDS011;2549;52.128;21.068;2023-02-22T04:24:27;2.63;;;1.98;;
5060;SDS011;2549;52.128;21.068;2023-02-22T04:26:55;3.80;;;2.22;;
5060;SDS011;2549;52.128;21.068;2023-02-22T04:29:22;5.05;;;2.05;;
5060;SDS011;2549;52.128;21.068;2023-02-22T04:31:49;5.55;;;2.05;;
5060;SDS011;2549;52.128;21.068;2023-02-22T04:34:16;4.65;;;2.20;;
5060;SDS011;2549;52.128;21.068;2023-02-22T04:36:43;8.55;;;2.20;;
5060;SDS011;2549;52.128;21.068;2023-02-22T04:39:10;1.90;;;1.80;;
5060;SDS011;2549;52.128;21.068;2023-02-22T04:41:37;3.60;;;2.03;;
5060;SDS011;2549;52.128;21.068;2023-02-22T04:44:04;9.18;;;2.55;;
5060;SDS011;2549;52.128;21.068;2023-02-22T04:46:30;2.95;;;2.30;;
5060;SDS011;2549;52.128;21.068;2023-02-22T04:48:57;4.85;;;1.75;;
5060;SDS011;2549;52.128;21.068;2023-02-22T04:51:25;2.13;;;1.65;;
5060;SDS011;2549;52.128;21.068;2023-02-22T04:53:51;4.03;;;1.42;;
5060;SDS011;2549;52.128;21.068;2023-02-22T04:56:18;2.40;;;1.77;;
5060;SDS011;2549;52.128;21.068;2023-02-22T04:58:45;1.10;;;1.10;;
5060;SDS011;2549;52.128;21.068;2023-02-22T05:01:13;5.88;;;1.30;;
5060;SDS011;2549;52.128;21.068;2023-02-22T05:03:42;0.80;;;0.80;;
5060;SDS011;2549;52.128;21.068;2023-02-22T05:06:09;1.25;;;1.25;;
5060;SDS011;2549;52.128;21.068;2023-02-22T05:08:37;1.13;;;1.02;;
5060;SDS011;2549;52.128;21.068;2023-02-22T05:11:04;1.10;;;1.02;;
5060;SDS011;2549;52.128;21.068;2023-02-22T05:13:31;1.00;;;1.00;;
5060;SDS011;2549;52.128;21.068;2023-02-22T05:15:58;1.15;;;1.15;;
5060;SDS011;2549;52.128;21.068;2023-02-22T05:18:25;1.45;;;1.27;;
5060;SDS011;2549;52.128;21.068;2023-02-22T05:20:52;1.38;;;1.27;;
5060;SDS011;2549;52.128;21.068;2023-02-22T05:23:18;1.25;;;1.08;;
5060;SDS011;2549;52.128;21.068;2023-02-22T05:25:45;1.33;;;1.23;;
5060;SDS011;2549;52.128;21.068;2023-02-22T05:28:13;1.27;;;1.17;;
5060;SDS011;2549;52.128;21.068;2023-02-22T05:30:41;1.35;;;1.30;;
5060;SDS011;2549;52.128;21.068;2023-02-22T05:33:08;1.23;;;1.23;;
5060;SDS011;2549;52.128;21.068;2023-02-22T05:35:35;1.20;;;1.10;;
5060;SDS011;2549;52.128;21.068;2023-02-22T05:38:02;1.23;;;1.23;;
5060;SDS011;2549;52.128;21.068;2023-02-22T05:40:30;0.98;;;0.98;;
5060;SDS011;2549;52.128;21.068;2023-02-22T05:42:57;1.55;;;1.15;;
5060;SDS011;2549;52.128;21.068;2023-02-22T05:45:25;1.10;;;1.00;;
5060;SDS011;2549;52.128;21.068;2023-02-22T05:47:53;1.05;;;1.05;;
5060;SDS011;2549;52.128;21.068;2023-02-22T05:50:20;1.55;;;0.90;;
5060;SDS011;2549;52.128;21.068;2023-02-22T05:52:47;1.88;;;1.13;;
5060;SDS011;2549;52.128;21.068;2023-02-22T05:55:15;1.52;;;1.42;;
5060;SDS011;2549;52.128;21.068;2023-02-22T05:57:44;7.63;;;1.52;;
5060;SDS011;2549;52.128;21.068;2023-02-22T06:00:19;1.42;;;1.30;;
5060;SDS011;2549;52.128;21.068;2023-02-22T06:05:22;1.73;;;1.48;;
5060;SDS011;2549;52.128;21.068;2023-02-22T06:07:49;6.53;;;1.75;;
5060;SDS011;2549;52.128;21.068;2023-02-22T06:10:16;4.13;;;2.00;;
5060;SDS011;2549;52.128;21.068;2023-02-22T06:12:43;1.17;;;1.08;;
5060;SDS011;2549;52.128;21.068;2023-02-22T06:15:10;1.42;;;1.33;;
5060;SDS011;2549;52.128;21.068;2023-02-22T06:17:37;3.35;;;1.67;;
5060;SDS011;2549;52.128;21.068;2023-02-22T06:20:04;1.45;;;1.30;;
5060;SDS011;2549;52.128;21.068;2023-02-22T06:22:33;2.92;;;1.80;;
5060;SDS011;2549;52.128;21.068;2023-02-22T06:25:01;5.20;;;2.60;;
5060;SDS011;2549;52.128;21.068;2023-02-22T06:27:31;2.35;;;1.90;;
5060;SDS011;2549;52.128;21.068;2023-02-22T06:29:59;1.85;;;1.73;;
5060;SDS011;2549;52.128;21.068;2023-02-22T06:32:27;6.25;;;1.95;;
5060;SDS011;2549;52.128;21.068;2023-02-22T06:34:53;1.58;;;1.48;;
5060;SDS011;2549;52.128;21.068;2023-02-22T06:37:20;2.95;;;1.73;;
5060;SDS011;2549;52.128;21.068;2023-02-22T06:39:47;3.05;;;1.60;;
5060;SDS011;2549;52.128;21.068;2023-02-22T06:42:14;6.22;;;1.90;;
5060;SDS011;2549;52.128;21.068;2023-02-22T06:44:41;2.00;;;1.80;;
5060;SDS011;2549;52.128;21.068;2023-02-22T06:47:08;3.75;;;1.60;;
5060;SDS011;2549;52.128;21.068;2023-02-22T06:49:35;1.85;;;1.50;;
5060;SDS011;2549;52.128;21.068;2023-02-22T06:52:05;1.75;;;1.65;;
5060;SDS011;2549;52.128;21.068;2023-02-22T06:54:33;1.65;;;1.52;;
5060;SDS011;2549;52.128;21.068;2023-02-22T06:57:00;1.40;;;1.30;;
5060;SDS011;2549;52.128;21.068;2023-02-22T06:59:27;1.00;;;1.00;;
5060;SDS011;2549;52.128;21.068;2023-02-22T07:01:53;2.30;;;1.38;;
5060;SDS011;2549;52.128;21.068;2023-02-22T07:04:20;2.75;;;1.95;;
5060;SDS011;2549;52.128;21.068;2023-02-22T07:06:47;3.13;;;1.10;;
5060;SDS011;2549;52.128;21.068;2023-02-22T07:09:15;2.17;;;1.35;;
5060;SDS011;2549;52.128;21.068;2023-02-22T07:11:43;8.18;;;1.55;;
5060;SDS011;2549;52.128;21.068;2023-02-22T07:14:10;2.42;;;1.30;;
5060;SDS011;2549;52.128;21.068;2023-02-22T07:16:37;2.60;;;1.30;;
5060;SDS011;2549;52.128;21.068;2023-02-22T07:19:04;1.40;;;1.30;;
5060;SDS011;2549;52.128;21.068;2023-02-22T07:21:30;1.70;;;1.60;;
5060;SDS011;2549;52.128;21.068;2023-02-22T07:23:57;2.28;;;1.55;;
5060;SDS011;2549;52.128;21.068;2023-02-22T07:26:24;2.05;;;1.80;;
5060;SDS011;2549;52.128;21.068;2023-02-22T07:28:52;3.60;;;1.80;;
5060;SDS011;2549;52.128;21.068;2023-02-22T07:31:19;4.90;;;1.40;;
5060;SDS011;2549;52.128;21.068;2023-02-22T07:34:10;2.50;;;1.30;;
5060;SDS011;2549;52.128;21.068;2023-02-22T07:36:38;1.88;;;1.73;;
5060;SDS011;2549;52.128;21.068;2023-02-22T07:39:05;5.30;;;2.38;;
5060;SDS011;2549;52.128;21.068;2023-02-22T07:41:33;3.53;;;1.70;;
5060;SDS011;2549;52.128;21.068;2023-02-22T07:44:00;2.00;;;1.80;;
5060;SDS011;2549;52.128;21.068;2023-02-22T07:46:27;4.10;;;1.90;;
5060;SDS011;2549;52.128;21.068;2023-02-22T07:48:55;4.45;;;2.30;;
5060;SDS011;2549;52.128;21.068;2023-02-22T07:51:21;15.20;;;1.85;;
5060;SDS011;2549;52.128;21.068;2023-02-22T07:53:48;2.35;;;1.92;;
5060;SDS011;2549;52.128;21.068;2023-02-22T07:56:15;1.77;;;1.65;;
5060;SDS011;2549;52.128;21.068;2023-02-22T07:58:43;1.88;;;1.75;;
5060;SDS011;2549;52.128;21.068;2023-02-22T08:01:10;4.80;;;2.05;;
5060;SDS011;2549;52.128;21.068;2023-02-22T08:03:37;3.00;;;2.00;;
5060;SDS011;2549;52.128;21.068;2023-02-22T08:06:04;3.92;;;2.08;;
5060;SDS011;2549;52.128;21.068;2023-02-22T08:08:33;3.88;;;2.20;;
5060;SDS011;2549;52.128;21.068;2023-02-22T08:11:00;3.88;;;2.30;;
5060;SDS011;2549;52.128;21.068;2023-02-22T08:13:27;5.68;;;2.30;;
5060;SDS011;2549;52.128;21.068;2023-02-22T08:15:54;3.25;;;2.30;;
5060;SDS011;2549;52.128;21.068;2023-02-22T08:18:21;7.13;;;1.70;;
5060;SDS011;2549;52.128;21.068;2023-02-22T08:20:49;13.25;;;1.95;;
5060;SDS011;2549;52.128;21.068;2023-02-22T08:23:17;12.18;;;2.05;;
5060;SDS011;2549;52.128;21.068;2023-02-22T08:25:46;2.30;;;1.52;;
5060;SDS011;2549;52.128;21.068;2023-02-22T08:28:14;2.78;;;2.20;;
5060;SDS011;2549;52.128;21.068;2023-02-22T08:30:42;2.83;;;2.00;;
5060;SDS011;2549;52.128;21.068;2023-02-22T08:33:10;2.53;;;2.33;;
5060;SDS011;2549;52.128;21.068;2023-02-22T08:35:45;4.72;;;1.63;;
5060;SDS011;2549;52.128;21.068;2023-02-22T08:38:25;1.88;;;1.30;;
5060;SDS011;2549;52.128;21.068;2023-02-22T08:40:54;2.88;;;1.40;;
5060;SDS011;2549;52.128;21.068;2023-02-22T08:43:20;3.80;;;1.95;;
5060;SDS011;2549;52.128;21.068;2023-02-22T08:45:48;4.50;;;1.90;;
5060;SDS011;2549;52.128;21.068;2023-02-22T08:48:17;4.43;;;1.50;;
5060;SDS011;2549;52.128;21.068;2023-02-22T08:50:45;1.77;;;1.27;;
5060;SDS011;2549;52.128;21.068;2023-02-22T08:53:12;3.50;;;1.60;;
5060;SDS011;2549;52.128;21.068;2023-02-22T08:55:39;2.47;;;1.27;;
5060;SDS011;2549;52.128;21.068;2023-02-22T08:58:07;2.33;;;1.30;;
5060;SDS011;2549;52.128;21.068;2023-02-22T09:00:35;1.50;;;1.13;;
5060;SDS011;2549;52.128;21.068;2023-02-22T09:03:05;2.28;;;1.23;;
5060;SDS011;2549;52.128;21.068;2023-02-22T09:05:33;2.05;;;1.20;;
5060;SDS011;2549;52.128;21.068;2023-02-22T09:08:00;2.90;;;1.52;;
5060;SDS011;2549;52.128;21.068;2023-02-22T09:10:29;2.28;;;1.98;;
5060;SDS011;2549;52.128;21.068;2023-02-22T09:12:58;1.92;;;1.70;;
5060;SDS011;2549;52.128;21.068;2023-02-22T09:15:26;2.28;;;1.48;;
5060;SDS011;2549;52.128;21.068;2023-02-22T09:17:54;1.50;;;1.40;;
5060;SDS011;2549;52.128;21.068;2023-02-22T09:20:21;1.85;;;1.50;;
5060;SDS011;2549;52.128;21.068;2023-02-22T09:22:49;1.55;;;1.35;;
5060;SDS011;2549;52.128;21.068;2023-02-22T09:25:16;1.60;;;1.50;;
5060;SDS011;2549;52.128;21.068;2023-02-22T09:27:46;14.75;;;1.95;;
5060;SDS011;2549;52.128;21.068;2023-02-22T09:30:15;2.60;;;1.90;;
5060;SDS011;2549;52.128;21.068;2023-02-22T09:32:45;1.85;;;1.70;;
5060;SDS011;2549;52.128;21.068;2023-02-22T09:35:12;1.50;;;1.40;;
5060;SDS011;2549;52.128;21.068;2023-02-22T09:37:39;3.85;;;2.05;;
5060;SDS011;2549;52.128;21.068;2023-02-22T09:40:16;2.20;;;1.95;;
5060;SDS011;2549;52.128;21.068;2023-02-22T09:42:53;3.05;;;2.20;;
5060;SDS011;2549;52.128;21.068;2023-02-22T09:48:22;8.85;;;2.50;;
5060;SDS011;2549;52.128;21.068;2023-02-22T09:50:51;4.70;;;1.70;;
5060;SDS011;2549;52.128;21.068;2023-02-22T09:53:25;2.00;;;1.80;;
5060;SDS011;2549;52.128;21.068;2023-02-22T09:55:58;8.35;;;3.15;;
5060;SDS011;2549;52.128;21.068;2023-02-22T09:58:32;3.17;;;1.90;;
5060;SDS011;2549;52.128;21.068;2023-02-22T10:03:55;1.80;;;1.67;;
5060;SDS011;2549;52.128;21.068;2023-02-22T10:06:31;3.92;;;1.60;;
5060;SDS011;2549;52.128;21.068;2023-02-22T10:09:01;3.15;;;2.20;;
5060;SDS011;2549;52.128;21.068;2023-02-22T10:25:07;8.80;;;2.38;;
5060;SDS011;2549;52.128;21.068;2023-02-22T10:27:42;1.95;;;1.80;;
5060;SDS011;2549;52.128;21.068;2023-02-22T10:30:27;1.95;;;1.85;;
5060;SDS011;2549;52.128;21.068;2023-02-22T10:33:16;6.75;;;2.00;;
5060;SDS011;2549;52.128;21.068;2023-02-22T10:35:46;3.65;;;1.80;;
5060;SDS011;2549;52.128;21.068;2023-02-22T10:38:16;2.85;;;2.03;;
5060;SDS011;2549;52.128;21.068;2023-02-22T10:40:52;1.80;;;1.70;;
5060;SDS011;2549;52.128;21.068;2023-02-22T10:43:36;3.05;;;2.45;;
5060;SDS011;2549;52.128;21.068;2023-02-22T10:46:04;3.58;;;2.00;;
5060;SDS011;2549;52.128;21.068;2023-02-22T10:48:34;5.30;;;2.85;;
5060;SDS011;2549;52.128;21.068;2023-02-22T10:51:04;6.45;;;2.97;;
5060;SDS011;2549;52.128;21.068;2023-02-22T10:53:34;2.55;;;2.35;;
5060;SDS011;2549;52.128;21.068;2023-02-22T10:56:17;3.45;;;2.80;;
5060;SDS011;2549;52.128;21.068;2023-02-22T10:58:57;7.20;;;3.20;;
5060;SDS011;2549;52.128;21.068;2023-02-22T11:06:36;6.70;;;3.97;;
5060;SDS011;2549;52.128;21.068;2023-02-22T11:11:39;4.95;;;3.05;;
5060;SDS011;2549;52.128;21.068;2023-02-22T11:14:07;6.80;;;3.85;;
5060;SDS011;2549;52.128;21.068;2023-02-22T11:16:37;10.52;;;3.45;;
5060;SDS011;2549;52.128;21.068;2023-02-22T11:19:31;3.72;;;3.28;;
5060;SDS011;2549;52.128;21.068;2023-02-22T11:24:47;4.65;;;3.05;;
5060;SDS011;2549;52.128;21.068;2023-02-22T11:27:21;3.90;;;2.97;;
5060;SDS011;2549;52.128;21.068;2023-02-22T11:29:49;6.38;;;3.30;;
5060;SDS011;2549;52.128;21.068;2023-02-22T11:32:18;18.75;;;3.97;;
5060;SDS011;2549;52.128;21.068;2023-02-22T11:34:47;14.65;;;3.33;;
5060;SDS011;2549;52.128;21.068;2023-02-22T11:37:32;9.07;;;3.28;;
5060;SDS011;2549;52.128;21.068;2023-02-22T11:40:15;5.50;;;3.10;;
5060;SDS011;2549;52.128;21.068;2023-02-22T11:42:45;7.50;;;3.08;;
5060;SDS011;2549;52.128;21.068;2023-02-22T11:45:20;11.55;;;2.70;;
5060;SDS011;2549;52.128;21.068;2023-02-22T11:47:54;5.65;;;2.88;;
5060;SDS011;2549;52.128;21.068;2023-02-22T11:55:45;5.90;;;3.08;;
5060;SDS011;2549;52.128;21.068;2023-02-22T12:15:51;5.22;;;3.05;;
5060;SDS011;2549;52.128;21.068;2023-02-22T12:18:47;5.13;;;3.45;;
5060;SDS011;2549;52.128;21.068;2023-02-22T12:21:39;6.57;;;3.50;;
5060;SDS011;2549;52.128;21.068;2023-02-22T12:24:17;3.63;;;2.83;;
5060;SDS011;2549;52.128;21.068;2023-02-22T12:26:49;12.23;;;3.10;;
5060;SDS011;2549;52.128;21.068;2023-02-22T12:35:09;3.88;;;3.22;;
5060;SDS011;2549;52.128;21.068;2023-02-22T12:45:59;8.25;;;3.33;;
5060;SDS011;2549;52.128;21.068;2023-02-22T12:51:24;6.95;;;3.17;;
5060;SDS011;2549;52.128;21.068;2023-02-22T12:56:49;11.73;;;3.40;;
5060;SDS011;2549;52.128;21.068;2023-02-22T12:59:28;7.78;;;3.30;;
5060;SDS011;2549;52.128;21.068;2023-02-22T13:02:16;3.92;;;3.53;;
5060;SDS011;2549;52.128;21.068;2023-02-22T13:04:47;5.45;;;3.00;;
5060;SDS011;2549;52.128;21.068;2023-02-22T13:12:40;2.58;;;2.35;;
5060;SDS011;2549;52.128;21.068;2023-02-22T13:15:22;3.30;;;2.50;;
5060;SDS011;2549;52.128;21.068;2023-02-22T13:36:42;5.90;;;2.85;;
5060;SDS011;2549;52.128;21.068;2023-02-22T13:42:15;6.53;;;2.88;;
5060;SDS011;2549;52.128;21.068;2023-02-22T13:47:30;5.47;;;3.10;;
5060;SDS011;2549;52.128;21.068;2023-02-22T13:52:48;7.20;;;2.65;;
5060;SDS011;2549;52.128;21.068;2023-02-22T13:55:18;4.60;;;2.75;;
5060;SDS011;2549;52.128;21.068;2023-02-22T13:57:58;7.40;;;3.55;;
5060;SDS011;2549;52.128;21.068;2023-02-22T14:00:45;10.02;;;2.85;;
5060;SDS011;2549;52.128;21.068;2023-02-22T14:05:50;3.30;;;2.20;;
5060;SDS011;2549;52.128;21.068;2023-02-22T14:10:51;6.10;;;2.45;;
5060;SDS011;2549;52.128;21.068;2023-02-22T14:13:22;8.23;;;2.45;;
5060;SDS011;2549;52.128;21.068;2023-02-22T14:18:23;4.90;;;2.55;;
5060;SDS011;2549;52.128;21.068;2023-02-22T14:23:49;3.80;;;2.83;;
5060;SDS011;2549;52.128;21.068;2023-02-22T14:26:25;5.00;;;3.15;;
5060;SDS011;2549;52.128;21.068;2023-02-22T14:31:35;4.47;;;2.47;;
5060;SDS011;2549;52.128;21.068;2023-02-22T14:37:25;6.88;;;3.25;;
5060;SDS011;2549;52.128;21.068;2023-02-22T14:40:05;6.43;;;3.00;;
5060;SDS011;2549;52.128;21.068;2023-02-22T14:43:03;6.40;;;3.30;;
5060;SDS011;2549;52.128;21.068;2023-02-22T14:45:38;3.38;;;2.22;;
5060;SDS011;2549;52.128;21.068;2023-02-22T14:48:19;5.45;;;3.22;;
5060;SDS011;2549;52.128;21.068;2023-02-22T14:50:59;5.35;;;3.28;;
5060;SDS011;2549;52.128;21.068;2023-02-22T14:53:47;13.30;;;3.33;;
5060;SDS011;2549;52.128;21.068;2023-02-22T14:56:20;5.90;;;2.60;;
5060;SDS011;2549;52.128;21.068;2023-02-22T14:59:12;6.78;;;3.05;;
5060;SDS011;2549;52.128;21.068;2023-02-22T15:01:40;2.97;;;2.10;;
5060;SDS011;2549;52.128;21.068;2023-02-22T15:04:28;3.05;;;2.30;;
5060;SDS011;2549;52.128;21.068;2023-02-22T15:06:57;5.32;;;2.33;;
5060;SDS011;2549;52.128;21.068;2023-02-22T15:09:27;4.90;;;2.70;;
5060;SDS011;2549;52.128;21.068;2023-02-22T15:14:30;8.57;;;2.60;;
5060;SDS011;2549;52.128;21.068;2023-02-22T15:17:05;8.00;;;2.22;;
5060;SDS011;2549;52.128;21.068;2023-02-22T15:19:38;3.20;;;2.45;;
5060;SDS011;2549;52.128;21.068;2023-02-22T15:22:13;8.95;;;2.72;;
5060;SDS011;2549;52.128;21.068;2023-02-22T15:24:56;3.03;;;2.40;;
5060;SDS011;2549;52.128;21.068;2023-02-22T15:27:29;4.93;;;2.92;;
5060;SDS011;2549;52.128;21.068;2023-02-22T15:30:08;3.72;;;2.05;;
5060;SDS011;2549;52.128;21.068;2023-02-22T15:33:12;6.85;;;2.00;;
5060;SDS011;2549;52.128;21.068;2023-02-22T15:35:53;3.42;;;2.30;;
5060;SDS011;2549;52.128;21.068;2023-02-22T15:38:27;5.25;;;2.45;;
5060;SDS011;2549;52.128;21.068;2023-02-22T15:40:59;4.18;;;2.40;;
5060;SDS011;2549;52.128;21.068;2023-02-22T15:43:28;4.00;;;2.30;;
5060;SDS011;2549;52.128;21.068;2023-02-22T15:45:56;3.13;;;2.08;;
5060;SDS011;2549;52.128;21.068;2023-02-22T15:48:24;2.63;;;2.20;;
5060;SDS011;2549;52.128;21.068;2023-02-22T15:51:02;5.07;;;2.47;;
5060;SDS011;2549;52.128;21.068;2023-02-22T15:53:37;9.30;;;2.10;;
5060;SDS011;2549;52.128;21.068;2023-02-22T15:56:14;4.60;;;2.00;;
5060;SDS011;2549;52.128;21.068;2023-02-22T15:58:51;2.55;;;2.35;;
5060;SDS011;2549;52.128;21.068;2023-02-22T16:01:28;3.53;;;2.45;;
5060;SDS011;2549;52.128;21.068;2023-02-22T16:04:01;4.55;;;2.40;;
5060;SDS011;2549;52.128;21.068;2023-02-22T16:06:33;7.05;;;3.00;;
5060;SDS011;2549;52.128;21.068;2023-02-22T16:09:07;3.90;;;2.72;;
5060;SDS011;2549;52.128;21.068;2023-02-22T16:11:37;3.28;;;2.80;;
5060;SDS011;2549;52.128;21.068;2023-02-22T16:14:26;8.65;;;3.53;;
5060;SDS011;2549;52.128;21.068;2023-02-22T16:19:51;3.35;;;2.80;;
5060;SDS011;2549;52.128;21.068;2023-02-22T16:22:34;3.35;;;2.28;;
5060;SDS011;2549;52.128;21.068;2023-02-22T16:25:14;4.20;;;3.22;;
5060;SDS011;2549;52.128;21.068;2023-02-22T16:27:45;6.05;;;2.92;;
5060;SDS011;2549;52.128;21.068;2023-02-22T16:32:51;2.30;;;2.10;;
5060;SDS011;2549;52.128;21.068;2023-02-22T16:35:19;3.10;;;2.47;;
5060;SDS011;2549;52.128;21.068;2023-02-22T16:37:48;2.40;;;2.20;;
5060;SDS011;2549;52.128;21.068;2023-02-22T16:42:48;9.65;;;2.42;;
5060;SDS011;2549;52.128;21.068;2023-02-22T16:45:17;3.08;;;2.10;;
5060;SDS011;2549;52.128;21.068;2023-02-22T16:47:45;2.30;;;2.08;;
5060;SDS011;2549;52.128;21.068;2023-02-22T16:50:13;2.13;;;1.92;;
5060;SDS011;2549;52.128;21.068;2023-02-22T16:52:41;3.17;;;1.92;;
5060;SDS011;2549;52.128;21.068;2023-02-22T16:55:09;2.00;;;1.80;;
5060;SDS011;2549;52.128;21.068;2023-02-22T16:57:39;3.08;;;2.15;;
5060;SDS011;2549;52.128;21.068;2023-02-22T17:00:18;2.75;;;2.25;;
5060;SDS011;2549;52.128;21.068;2023-02-22T17:03:00;2.45;;;1.92;;
5060;SDS011;2549;52.128;21.068;2023-02-22T17:05:31;4.40;;;2.03;;
5060;SDS011;2549;52.128;21.068;2023-02-22T17:08:02;7.80;;;2.25;;
5060;SDS011;2549;52.128;21.068;2023-02-22T17:10:29;3.70;;;2.65;;
5060;SDS011;2549;52.128;21.068;2023-02-22T17:12:57;3.40;;;2.40;;
5060;SDS011;2549;52.128;21.068;2023-02-22T17:15:32;3.72;;;2.03;;
5060;SDS011;2549;52.128;21.068;2023-02-22T17:18:01;2.50;;;2.25;;
5060;SDS011;2549;52.128;21.068;2023-02-22T17:20:30;8.40;;;2.30;;
5060;SDS011;2549;52.128;21.068;2023-02-22T17:22:58;2.72;;;2.50;;
5060;SDS011;2549;52.128;21.068;2023-02-22T17:25:31;6.20;;;2.60;;
5060;SDS011;2549;52.128;21.068;2023-02-22T17:28:21;2.85;;;2.45;;
5060;SDS011;2549;52.128;21.068;2023-02-22T17:30:50;2.80;;;2.50;;
5060;SDS011;2549;52.128;21.068;2023-02-22T17:33:20;3.50;;;2.60;;
5060;SDS011;2549;52.128;21.068;2023-02-22T17:35:52;2.55;;;2.35;;
5060;SDS011;2549;52.128;21.068;2023-02-22T17:38:21;8.70;;;3.00;;
5060;SDS011;2549;52.128;21.068;2023-02-22T17:40:48;5.43;;;3.10;;
5060;SDS011;2549;52.128;21.068;2023-02-22T17:43:20;2.95;;;2.50;;
5060;SDS011;2549;52.128;21.068;2023-02-22T17:45:47;6.78;;;3.58;;
5060;SDS011;2549;52.128;21.068;2023-02-22T17:48:15;6.40;;;3.72;;
5060;SDS011;2549;52.128;21.068;2023-02-22T17:50:44;6.07;;;3.47;;
5060;SDS011;2549;52.128;21.068;2023-02-22T17:53:11;4.68;;;3.13;;
5060;SDS011;2549;52.128;21.068;2023-02-22T17:55:39;4.15;;;3.05;;
5060;SDS011;2549;52.128;21.068;2023-02-22T17:58:09;4.72;;;3.53;;
5060;SDS011;2549;52.128;21.068;2023-02-22T18:00:44;5.57;;;3.53;;
5060;SDS011;2549;52.128;21.068;2023-02-22T18:03:13;5.45;;;3.97;;
5060;SDS011;2549;52.128;21.068;2023-02-22T18:05:47;3.90;;;3.35;;
5060;SDS011;2549;52.128;21.068;2023-02-22T18:08:16;7.80;;;3.70;;
5060;SDS011;2549;52.128;21.068;2023-02-22T18:10:44;7.20;;;4.45;;
5060;SDS011;2549;52.128;21.068;2023-02-22T18:13:12;5.75;;;4.50;;